Terminal Aerodrome Forecast
Issued by NWS Cleveland, OH

Home | Current Version | Previous Version | Graphics & Text | Print | Product List | Glossary On
Versions: 1 2 3 4 5 6 7 8 9 10 11 12 13 14 15
000
FTUS41 KCLE 261738
TAFCAK
TAF
KCAK 261738Z 2618/2718 24005KT 6SM HZ VCSH BKN040 BKN100
      TEMPO 2618/2620 30008KT 4SM -TSRA BKN025CB
     FM262000 33005KT P6SM SCT040 BKN150
     FM270800 36003KT 4SM BR BKN150
     FM271300 03005KT P6SM BKN250=

USA.gov is the U.S. government's official web portal to all federal, state and local government web resources and services.